createdAt,value
2018-12-26T00:02:13.806Z,95803.60
2018-12-26T00:04:40.449Z,95807.39
2018-12-26T00:07:07.113Z,95810.28
2018-12-26T00:09:33.750Z,95811.43
2018-12-26T00:12:00.393Z,95812.92
2018-12-26T00:14:27.047Z,95815.45
2018-12-26T00:16:53.689Z,95811.81
2018-12-26T00:19:20.337Z,95819.13
2018-12-26T00:21:46.984Z,95821.66
2018-12-26T00:24:13.651Z,95824.20
2018-12-26T00:26:40.278Z,95823.92
2018-12-26T00:29:06.920Z,95826.45
2018-12-26T00:31:33.578Z,95830.38
2018-12-26T00:34:00.207Z,95828.84
2018-12-26T00:36:26.860Z,95831.37
2018-12-26T00:38:53.498Z,95831.52
2018-12-26T00:41:20.202Z,95834.05
2018-12-26T00:43:46.845Z,95836.82
2018-12-26T00:46:13.477Z,95834.30
2018-12-26T00:48:40.148Z,95836.42
2018-12-26T00:51:06.793Z,95836.80
2018-12-26T00:53:33.457Z,95835.03
2018-12-26T00:56:00.093Z,95828.06
2018-12-26T00:58:26.740Z,95827.33
2018-12-26T01:00:53.381Z,95820.77
2018-12-26T01:03:20.032Z,95819.63
2018-12-26T01:05:46.697Z,95816.36
2018-12-26T01:08:13.324Z,95821.53
2018-12-26T01:10:39.966Z,95809.91
2018-12-26T01:13:06.611Z,95810.80
2018-12-26T01:15:33.255Z,95809.52
2018-12-26T01:17:59.896Z,95810.41
2018-12-26T01:20:26.536Z,95814.86
2018-12-26T01:22:53.216Z,95812.81
2018-12-26T01:25:19.856Z,95812.43
2018-12-26T01:27:46.594Z,95820.90
2018-12-26T01:30:13.329Z,95821.42
2018-12-26T01:32:39.976Z,95814.83
2018-12-26T01:35:06.619Z,95811.16
2018-12-26T01:37:33.317Z,95801.20
2018-12-26T01:39:59.973Z,95797.11
2018-12-26T01:42:26.626Z,95795.51
2018-12-26T01:44:54.187Z,95795.37
2018-12-26T01:47:19.909Z,95787.42
2018-12-26T01:49:46.543Z,95787.80
2018-12-26T01:52:13.179Z,95783.64
2018-12-26T01:54:39.819Z,95786.69
2018-12-26T01:57:06.519Z,95789.22
2018-12-26T01:59:33.169Z,95782.89
2018-12-26T02:01:59.865Z,95788.83
2018-12-26T02:04:26.514Z,95789.73
2018-12-26T02:06:53.158Z,95787.58
2018-12-26T02:09:19.797Z,95791.36
2018-12-26T02:11:46.437Z,95797.30
2018-12-26T02:14:13.221Z,95801.70
2018-12-26T02:16:39.858Z,95790.48
2018-12-26T02:19:06.497Z,95789.99
2018-12-26T02:21:33.147Z,95785.18
2018-12-26T02:23:59.874Z,95783.91
2018-12-26T02:26:26.565Z,95778.71
2018-12-26T02:28:53.202Z,95786.55
2018-12-26T02:31:19.856Z,95774.69
2018-12-26T02:33:46.529Z,95778.47
2018-12-26T02:36:13.238Z,95773.43
2018-12-26T02:38:39.877Z,95774.30
2018-12-26T02:41:06.574Z,95770.78
2018-12-26T02:43:33.231Z,95780.13
2018-12-26T02:45:59.871Z,95772.80
2018-12-26T02:48:26.528Z,95774.81
2018-12-26T02:50:53.174Z,95763.35
2018-12-26T02:53:19.830Z,95764.59
2018-12-26T02:55:46.470Z,95766.75
2018-12-26T02:58:13.120Z,95772.05
2018-12-26T03:00:39.769Z,95771.29
2018-12-26T03:03:06.417Z,95780.63
2018-12-26T03:05:33.053Z,95765.73
2018-12-26T03:07:59.715Z,95768.64
2018-12-26T03:10:26.369Z,95770.63
2018-12-26T03:12:53.032Z,95777.22
2018-12-26T03:15:19.680Z,95776.07
2018-12-26T03:17:46.382Z,95775.45
2018-12-26T03:20:13.032Z,95775.20
2018-12-26T03:22:39.715Z,95774.05
2018-12-26T03:25:06.371Z,95775.06
2018-12-26T03:27:33.009Z,95779.11
2018-12-26T03:29:59.810Z,95789.59
2018-12-26T03:32:26.503Z,95792.26
2018-12-26T03:34:53.133Z,95796.16
2018-12-26T03:37:19.784Z,95802.09
2018-12-26T03:39:46.481Z,95801.59
2018-12-26T03:42:13.121Z,95799.55
2018-12-26T03:44:39.766Z,95804.75
2018-12-26T03:47:06.416Z,95799.82
2018-12-26T03:49:33.050Z,95801.84
2018-12-26T03:52:02.077Z,95806.39
2018-12-26T03:54:26.328Z,95806.36
2018-12-26T03:56:52.982Z,95804.22
2018-12-26T03:59:19.637Z,95801.95
2018-12-26T04:01:46.324Z,95806.48
2018-12-26T04:04:12.980Z,95809.39
2018-12-26T04:06:39.667Z,95817.09
2018-12-26T04:09:06.316Z,95821.02
2018-12-26T04:11:33.009Z,95815.45
2018-12-26T04:13:59.659Z,95814.07
2018-12-26T04:16:26.308Z,95820.01
2018-12-26T04:18:52.950Z,95823.68
2018-12-26T04:21:19.642Z,95816.08
2018-12-26T04:23:46.285Z,95818.62
2018-12-26T04:26:12.937Z,95810.80
2018-12-26T04:28:39.622Z,95810.03
2018-12-26T04:31:06.272Z,95819.89
2018-12-26T04:33:32.917Z,95823.16
2018-12-26T04:35:59.615Z,95832.23
2018-12-26T04:38:26.269Z,95840.71
2018-12-26T04:40:52.905Z,95833.46
2018-12-26T04:43:19.551Z,95840.05
2018-12-26T04:45:46.252Z,95836.66
2018-12-26T04:48:12.902Z,95837.42
2018-12-26T04:50:39.666Z,95830.91
2018-12-26T04:53:06.314Z,95822.47
2018-12-26T04:55:33.002Z,95829.17
2018-12-26T04:57:59.647Z,95825.88
2018-12-26T05:00:26.299Z,95823.23
2018-12-26T05:02:52.952Z,95828.17
2018-12-26T05:05:19.636Z,95837.27
2018-12-26T05:07:46.287Z,95836.50
2018-12-26T05:10:12.941Z,95832.85
2018-12-26T05:12:39.629Z,95831.47
2018-12-26T05:15:06.285Z,95837.92
2018-12-26T05:17:32.922Z,95841.70
2018-12-26T05:19:59.660Z,95850.77
2018-12-26T05:22:26.215Z,95855.55
2018-12-26T05:24:52.905Z,95867.03
2018-12-26T05:27:19.646Z,95861.10
2018-12-26T05:29:46.336Z,95865.26
2018-12-26T05:32:12.988Z,95864.88
2018-12-26T05:34:39.674Z,95869.30
2018-12-26T05:37:06.322Z,95872.34
2018-12-26T05:39:32.982Z,95874.36
2018-12-26T05:41:59.624Z,95882.97
2018-12-26T05:44:26.273Z,95874.74
2018-12-26T05:46:52.924Z,95878.94
2018-12-26T05:49:19.622Z,95888.66
2018-12-26T05:51:46.275Z,95886.75
2018-12-26T05:54:12.918Z,95886.27
2018-12-26T05:56:39.609Z,95886.75
2018-12-26T05:59:06.257Z,95888.91
2018-12-26T06:01:32.964Z,95898.24
2018-12-26T06:03:59.602Z,95898.48
2018-12-26T06:06:26.247Z,95895.17
2018-12-26T06:08:52.948Z,95899.20
2018-12-26T06:11:19.596Z,95903.88
2018-12-26T06:13:46.255Z,95903.36
2018-12-26T06:16:12.965Z,95898.44
2018-12-26T06:18:39.598Z,95908.59
2018-12-26T06:21:06.235Z,95898.55
2018-12-26T06:23:32.889Z,95909.14
2018-12-26T06:25:59.601Z,95915.56
2018-12-26T06:28:26.238Z,95922.06
2018-12-26T06:30:52.876Z,95922.36
2018-12-26T06:33:19.527Z,95915.46
2018-12-26T06:35:47.602Z,95923.44
2018-12-26T06:38:12.874Z,95922.17
2018-12-26T06:40:39.520Z,95919.77
2018-12-26T06:43:06.155Z,95927.22
2018-12-26T06:45:32.803Z,95926.08
2018-12-26T06:48:00.933Z,95920.16
2018-12-26T06:50:26.156Z,95930.39
2018-12-26T06:52:52.799Z,95933.16
2018-12-26T06:55:19.442Z,95935.23
2018-12-26T06:57:46.084Z,95929.66
2018-12-26T07:00:12.772Z,95936.86
2018-12-26T07:02:39.411Z,95928.38
2018-12-26T07:05:06.060Z,95942.03
2018-12-26T07:07:32.707Z,95945.42
2018-12-26T07:09:59.357Z,95945.41
2018-12-26T07:12:26.009Z,95939.20
2018-12-26T07:14:52.644Z,95941.08
2018-12-26T07:17:19.287Z,95936.54
2018-12-26T07:19:45.998Z,95927.92
2018-12-26T07:22:12.707Z,95931.81
2018-12-26T07:24:39.344Z,95932.94
2018-12-26T07:27:06.002Z,95928.01
2018-12-26T07:29:32.651Z,95938.00
2018-12-26T07:31:59.367Z,95945.70
2018-12-26T07:34:26.009Z,95943.16
2018-12-26T07:36:52.641Z,95940.56
2018-12-26T07:39:19.298Z,95942.20
2018-12-26T07:41:45.942Z,95937.63
2018-12-26T07:44:12.597Z,95946.70
2018-12-26T07:46:39.246Z,95938.87
2018-12-26T07:49:05.944Z,95941.55
2018-12-26T07:51:32.594Z,95946.58
2018-12-26T07:53:59.482Z,95944.78
2018-12-26T07:56:26.119Z,95946.23
2018-12-26T07:58:52.758Z,95948.47
2018-12-26T08:01:19.414Z,95954.16
2018-12-26T08:03:46.051Z,95954.91
2018-12-26T08:06:12.745Z,95953.15
2018-12-26T08:08:39.393Z,95953.55
2018-12-26T08:11:06.050Z,95957.61
2018-12-26T08:13:32.701Z,95958.47
2018-12-26T08:15:59.396Z,95955.33
2018-12-26T08:18:26.038Z,95955.06
2018-12-26T08:20:52.726Z,95959.76
2018-12-26T08:23:19.357Z,95964.30
2018-12-26T08:25:46.004Z,95957.73
2018-12-26T08:28:12.731Z,95959.00
2018-12-26T08:30:39.373Z,95951.52
2018-12-26T08:33:06.064Z,95951.94
2018-12-26T08:35:32.714Z,95952.94
2018-12-26T08:37:59.412Z,95953.55
2018-12-26T08:40:26.051Z,95941.77
2018-12-26T08:42:52.744Z,95939.37
2018-12-26T08:45:22.619Z,95935.05
2018-12-26T08:47:49.270Z,95935.42
2018-12-26T08:50:15.923Z,95939.72
2018-12-26T08:52:42.558Z,95938.84
2018-12-26T08:55:09.199Z,95932.06
2018-12-26T08:57:35.845Z,95932.52
2018-12-26T09:00:02.547Z,95928.36
2018-12-26T09:02:29.190Z,95925.09
2018-12-26T09:04:55.828Z,95928.38
2018-12-26T09:07:22.484Z,95928.45
2018-12-26T09:09:49.172Z,95924.86
2018-12-26T09:12:15.807Z,95928.97
2018-12-26T09:14:42.497Z,95933.76
2018-12-26T09:17:09.204Z,95924.92
2018-12-26T09:19:35.856Z,95925.08
2018-12-26T09:22:02.495Z,95920.80
2018-12-26T09:24:29.317Z,95907.39
2018-12-26T09:26:55.964Z,95906.50
2018-12-26T09:29:22.654Z,95904.86
2018-12-26T09:31:49.301Z,95900.95
2018-12-26T09:34:15.990Z,95897.52
2018-12-26T09:36:42.638Z,95889.68
2018-12-26T09:39:09.334Z,95890.58
2018-12-26T09:41:35.987Z,95889.83
2018-12-26T09:44:02.638Z,95883.00
2018-12-26T09:46:29.278Z,95885.93
2018-12-26T09:48:55.938Z,95882.16
2018-12-26T09:51:22.606Z,95871.52
2018-12-26T09:53:49.243Z,95870.26
2018-12-26T09:56:16.031Z,95865.58
2018-12-26T09:58:42.729Z,95854.84
2018-12-26T10:01:12.448Z,95850.17
2018-12-26T10:03:39.138Z,95849.93
2018-12-26T10:06:05.785Z,95841.31
2018-12-26T10:08:32.470Z,95838.15
2018-12-26T10:10:59.129Z,95837.13
2018-12-26T10:13:25.768Z,95834.49
2018-12-26T10:15:52.433Z,95834.63
2018-12-26T10:18:19.069Z,95818.54
2018-12-26T10:20:45.756Z,95822.86
2018-12-26T10:23:12.400Z,95827.04
2018-12-26T10:25:39.096Z,95817.56
2018-12-26T10:28:05.743Z,95815.92
2018-12-26T10:30:32.491Z,95809.23
2018-12-26T10:32:59.136Z,95799.09
2018-12-26T10:35:25.777Z,95803.78
2018-12-26T10:37:52.429Z,95797.08
2018-12-26T10:40:19.118Z,95798.58
2018-12-26T10:42:46.071Z,95792.90
2018-12-26T10:45:12.461Z,95791.79
2018-12-26T10:47:39.099Z,95795.95
2018-12-26T10:50:05.748Z,95792.42
2018-12-26T10:52:32.395Z,95786.98
2018-12-26T10:54:59.077Z,95787.88
2018-12-26T10:57:25.783Z,95787.25
2018-12-26T10:59:52.436Z,95786.36
2018-12-26T11:02:19.089Z,95778.91
2018-12-26T11:04:45.781Z,95790.40
2018-12-26T11:07:12.475Z,95787.25
2018-12-26T11:09:39.112Z,95784.19
2018-12-26T11:12:05.805Z,95791.15
2018-12-26T11:14:32.519Z,95778.52
2018-12-26T11:16:59.157Z,95780.89
2018-12-26T11:19:25.853Z,95775.33
2018-12-26T11:21:52.494Z,95773.92
2018-12-26T11:24:19.190Z,95766.97
2018-12-26T11:26:45.889Z,95760.39
2018-12-26T11:29:18.585Z,95761.15
2018-12-26T11:31:39.247Z,95761.27
2018-12-26T11:34:05.881Z,95762.78
2018-12-26T11:36:32.539Z,95761.48
2018-12-26T11:38:59.194Z,95765.40
2018-12-26T11:41:25.887Z,95751.77
2018-12-26T11:43:52.575Z,95760.23
2018-12-26T11:46:19.209Z,95753.02
2018-12-26T11:48:45.900Z,95752.77
2018-12-26T11:51:12.553Z,95751.27
2018-12-26T11:53:39.190Z,95751.66
2018-12-26T11:56:07.243Z,95753.44
2018-12-26T11:58:32.552Z,95754.46
2018-12-26T12:00:59.197Z,95748.52
2018-12-26T12:03:25.838Z,95754.83
2018-12-26T12:05:52.496Z,95758.64
2018-12-26T12:08:19.236Z,95766.11
2018-12-26T12:10:46.005Z,95759.89
2018-12-26T12:13:12.650Z,95760.92
2018-12-26T12:15:39.289Z,95759.00
2018-12-26T12:18:05.994Z,95759.00
2018-12-26T12:20:32.680Z,95754.06
2018-12-26T12:22:59.393Z,95759.11
2018-12-26T12:25:26.027Z,95763.07
2018-12-26T12:27:52.662Z,95766.45
2018-12-26T12:30:19.352Z,95774.30
2018-12-26T12:32:45.999Z,95766.58
2018-12-26T12:35:12.638Z,95772.93
2018-12-26T12:37:39.280Z,95779.50
2018-12-26T12:40:05.933Z,95766.38
2018-12-26T12:42:32.571Z,95765.16
2018-12-26T12:44:59.258Z,95762.42
2018-12-26T12:47:25.896Z,95765.62
2018-12-26T12:49:52.606Z,95756.27
2018-12-26T12:52:19.243Z,95754.97
2018-12-26T12:54:45.880Z,95760.39
2018-12-26T12:57:15.460Z,95749.73
2018-12-26T12:59:44.894Z,95759.72
2018-12-26T13:02:08.762Z,95763.16
2018-12-26T13:04:35.503Z,95764.16
2018-12-26T13:07:02.446Z,95774.62
2018-12-26T13:09:28.918Z,95774.25
2018-12-26T13:11:55.561Z,95771.08
2018-12-26T13:14:22.209Z,95765.41
2018-12-26T13:16:48.916Z,95764.27
2018-12-26T13:19:15.635Z,95775.64
2018-12-26T13:21:42.273Z,95770.23
2018-12-26T13:24:08.986Z,95766.79
2018-12-26T13:26:35.643Z,95767.80
2018-12-26T13:29:02.293Z,95765.92
2018-12-26T13:31:29.051Z,95765.66
2018-12-26T13:33:55.657Z,95765.41
2018-12-26T13:36:22.310Z,95762.87
2018-12-26T13:38:48.962Z,95764.27
2018-12-26T13:41:15.615Z,95762.73
2018-12-26T13:43:42.270Z,95761.09
2018-12-26T13:46:08.912Z,95761.34
2018-12-26T13:48:35.612Z,95763.00
2018-12-26T13:51:02.261Z,95748.58
2018-12-26T13:53:29.607Z,95753.77
2018-12-26T13:55:55.599Z,95753.00
2018-12-26T13:58:22.289Z,95749.59
2018-12-26T14:00:48.933Z,95753.15
2018-12-26T14:03:15.693Z,95756.44
2018-12-26T14:05:42.342Z,95761.61
2018-12-26T14:08:08.983Z,95754.41
2018-12-26T14:10:35.696Z,95749.48
2018-12-26T14:13:02.448Z,95748.22
2018-12-26T14:15:29.024Z,95752.00
2018-12-26T14:17:55.673Z,95741.91
2018-12-26T14:20:22.317Z,95740.65
2018-12-26T14:22:49.023Z,95747.34
2018-12-26T14:25:15.724Z,95745.58
2018-12-26T14:27:42.367Z,95745.33
2018-12-26T14:30:11.357Z,95733.09
2018-12-26T14:32:35.749Z,95738.38
2018-12-26T14:35:02.389Z,95741.70
2018-12-26T14:37:29.052Z,95726.91
2018-12-26T14:39:55.706Z,95726.05
2018-12-26T14:42:22.351Z,95729.58
2018-12-26T14:44:49.009Z,95731.98
2018-12-26T14:47:15.658Z,95719.86
2018-12-26T14:49:42.316Z,95733.38
2018-12-26T14:52:08.971Z,95733.50
2018-12-26T14:54:35.677Z,95723.92
2018-12-26T14:57:02.364Z,95723.93
2018-12-26T14:59:29.056Z,95721.89
2018-12-26T15:01:55.694Z,95721.65
2018-12-26T15:04:22.341Z,95714.08
2018-12-26T15:06:48.998Z,95714.08
2018-12-26T15:09:15.651Z,95722.05
2018-12-26T15:11:42.290Z,95708.16
2018-12-26T15:14:08.946Z,95708.50
2018-12-26T15:16:35.658Z,95713.44
2018-12-26T15:19:02.302Z,95707.02
2018-12-26T15:21:28.956Z,95710.67
2018-12-26T15:23:55.607Z,95702.59
2018-12-26T15:26:22.259Z,95700.17
2018-12-26T15:28:48.938Z,95696.02
2018-12-26T15:31:15.557Z,95696.64
2018-12-26T15:33:42.196Z,95686.27
2018-12-26T15:36:08.829Z,95688.30
2018-12-26T15:38:35.532Z,95687.80
2018-12-26T15:41:02.194Z,95691.57
2018-12-26T15:43:28.837Z,95687.41
2018-12-26T15:45:55.490Z,95688.66
2018-12-26T15:48:22.142Z,95685.00
2018-12-26T15:50:48.787Z,95687.40
2018-12-26T15:53:15.432Z,95683.73
2018-12-26T15:55:42.085Z,95688.15
2018-12-26T15:58:11.536Z,95684.23
2018-12-26T16:00:38.213Z,95679.18
2018-12-26T16:03:04.855Z,95673.63
2018-12-26T16:05:31.501Z,95679.81
2018-12-26T16:07:58.155Z,95673.11
2018-12-26T16:10:24.795Z,95667.05
2018-12-26T16:12:51.463Z,95666.52
2018-12-26T16:15:18.104Z,95662.48
2018-12-26T16:17:44.743Z,95658.81
2018-12-26T16:20:11.395Z,95669.44
2018-12-26T16:22:39.669Z,95672.84
2018-12-26T16:25:04.674Z,95668.67
2018-12-26T16:27:31.313Z,95674.86
2018-12-26T16:29:57.976Z,95667.05
2018-12-26T16:32:24.624Z,95677.91
2018-12-26T16:34:51.266Z,95679.55
2018-12-26T16:37:17.906Z,95674.88
2018-12-26T16:39:44.566Z,95673.48
2018-12-26T16:42:11.203Z,95675.62
2018-12-26T16:44:37.849Z,95670.94
2018-12-26T16:47:04.489Z,95673.47
2018-12-26T16:49:31.161Z,95672.83
2018-12-26T16:51:57.808Z,95679.55
2018-12-26T16:54:25.686Z,95673.72
2018-12-26T16:56:51.098Z,95678.39
2018-12-26T16:59:17.750Z,95676.62
2018-12-26T17:01:44.412Z,95670.94
2018-12-26T17:04:11.084Z,95668.41
2018-12-26T17:06:37.711Z,95655.40
2018-12-26T17:09:04.351Z,95650.84
2018-12-26T17:11:31.049Z,95650.09
2018-12-26T17:13:57.705Z,95656.16
2018-12-26T17:16:24.349Z,95661.72
2018-12-26T17:18:50.986Z,95664.75
2018-12-26T17:21:17.640Z,95662.33
2018-12-26T17:23:44.310Z,95662.73
2018-12-26T17:26:10.948Z,95656.54
2018-12-26T17:28:37.596Z,95662.35
2018-12-26T17:31:04.570Z,95653.62
2018-12-26T17:33:30.881Z,95648.70
2018-12-26T17:35:57.526Z,95659.67
2018-12-26T17:38:24.169Z,95662.20
2018-12-26T17:40:50.816Z,95657.16
2018-12-26T17:43:17.466Z,95663.22
2018-12-26T17:45:44.107Z,95658.79
2018-12-26T17:48:10.864Z,95673.57
2018-12-26T17:50:37.513Z,95661.72
2018-12-26T17:53:04.154Z,95666.63
2018-12-26T17:55:30.804Z,95666.39
2018-12-26T17:57:57.443Z,95656.39
2018-12-26T18:00:24.102Z,95661.45
2018-12-26T18:02:50.763Z,95659.31
2018-12-26T18:05:17.404Z,95655.27
2018-12-26T18:07:44.056Z,95660.05
2018-12-26T18:10:10.689Z,95664.35
2018-12-26T18:12:37.347Z,95657.53
2018-12-26T18:15:04.388Z,95661.19
2018-12-26T18:17:31.042Z,95659.31
2018-12-26T18:19:57.751Z,95656.63
2018-12-26T18:22:27.280Z,95655.63
2018-12-26T18:24:53.936Z,95658.28
2018-12-26T18:27:20.623Z,95659.69
2018-12-26T18:29:47.337Z,95658.28
2018-12-26T18:32:13.994Z,95654.98
2018-12-26T18:34:40.631Z,95658.56
2018-12-26T18:37:07.274Z,95664.37
2018-12-26T18:39:33.937Z,95662.59
2018-12-26T18:42:00.586Z,95667.28
2018-12-26T18:44:27.315Z,95658.94
2018-12-26T18:46:53.956Z,95664.23
2018-12-26T18:49:20.611Z,95658.66
2018-12-26T18:51:47.249Z,95659.67
2018-12-26T18:54:13.912Z,95653.76
2018-12-26T18:56:40.552Z,95661.94
2018-12-26T18:59:07.262Z,95655.50
2018-12-26T19:01:33.903Z,95650.47
2018-12-26T19:04:00.548Z,95654.01
2018-12-26T19:06:27.195Z,95653.88
2018-12-26T19:08:53.840Z,95654.64
2018-12-26T19:11:20.489Z,95658.56
2018-12-26T19:13:47.139Z,95644.66
2018-12-26T19:16:13.791Z,95645.03
2018-12-26T19:18:40.481Z,95650.72
2018-12-26T19:21:07.133Z,95647.82
2018-12-26T19:23:33.777Z,95652.11
2018-12-26T19:26:00.464Z,95652.63
2018-12-26T19:28:27.110Z,95650.86
2018-12-26T19:30:53.759Z,95652.36
2018-12-26T19:33:20.415Z,95653.89
2018-12-26T19:35:48.209Z,95653.37
2018-12-26T19:38:14.850Z,95657.28
2018-12-26T19:40:41.485Z,95650.22
2018-12-26T19:43:08.163Z,95651.98
2018-12-26T19:45:34.809Z,95645.55
2018-12-26T19:48:01.501Z,95646.31
2018-12-26T19:50:28.143Z,95646.70
2018-12-26T19:52:54.832Z,95641.87
2018-12-26T19:55:21.477Z,95643.64
2018-12-26T19:57:48.136Z,95643.26
2018-12-26T20:00:14.827Z,95639.75
2018-12-26T20:02:41.484Z,95638.23
2018-12-26T20:05:08.121Z,95638.09
2018-12-26T20:07:34.774Z,95644.16
2018-12-26T20:10:01.432Z,95639.59
2018-12-26T20:12:28.113Z,95639.86
2018-12-26T20:14:54.756Z,95636.97
2018-12-26T20:17:21.594Z,95639.73
2018-12-26T20:19:48.240Z,95636.81
2018-12-26T20:22:14.878Z,95636.05
2018-12-26T20:24:41.556Z,95632.89
2018-12-26T20:27:08.251Z,95633.53
2018-12-26T20:29:34.898Z,95639.22
2018-12-26T20:32:01.535Z,95639.98
2018-12-26T20:34:28.229Z,95630.39
2018-12-26T20:36:54.874Z,95640.38
2018-12-26T20:39:21.560Z,95639.48
2018-12-26T20:41:48.200Z,95635.08
2018-12-26T20:44:14.859Z,95635.94
2018-12-26T20:46:41.498Z,95641.19
2018-12-26T20:49:08.149Z,95636.18
2018-12-26T20:51:34.784Z,95637.85
2018-12-26T20:54:01.429Z,95638.58
2018-12-26T20:56:28.072Z,95631.91
2018-12-26T20:58:54.765Z,95632.78
2018-12-26T21:01:21.403Z,95634.52
2018-12-26T21:03:48.099Z,95631.25
2018-12-26T21:06:14.754Z,95632.50
2018-12-26T21:08:41.406Z,95640.20
2018-12-26T21:11:08.053Z,95628.81
2018-12-26T21:13:34.780Z,95627.55
2018-12-26T21:16:01.428Z,95624.52
2018-12-26T21:18:28.121Z,95628.14
2018-12-26T21:20:54.767Z,95624.98
2018-12-26T21:23:21.528Z,95618.67
2018-12-26T21:25:48.101Z,95623.84
2018-12-26T21:28:14.773Z,95622.08
2018-12-26T21:30:41.428Z,95617.13
2018-12-26T21:33:08.058Z,95621.30
2018-12-26T21:35:34.714Z,95622.31
2018-12-26T21:38:04.192Z,95621.19
2018-12-26T21:40:30.858Z,95621.70
2018-12-26T21:42:57.498Z,95613.86
2018-12-26T21:45:24.906Z,95626.23
2018-12-26T21:47:50.841Z,95625.73
2018-12-26T21:50:17.494Z,95631.39
2018-12-26T21:52:44.149Z,95629.41
2018-12-26T21:55:10.789Z,95628.02
2018-12-26T21:57:37.428Z,95620.06
2018-12-26T22:00:04.117Z,95627.77
2018-12-26T22:02:30.766Z,95622.33
2018-12-26T22:04:57.410Z,95622.31
2018-12-26T22:07:24.075Z,95618.04
2018-12-26T22:09:50.713Z,95617.89
2018-12-26T22:12:17.357Z,95630.17
2018-12-26T22:14:44.011Z,95624.71
2018-12-26T22:17:10.655Z,95627.26
2018-12-26T22:19:37.317Z,95623.59
2018-12-26T22:22:03.956Z,95618.41
2018-12-26T22:24:30.610Z,95620.06
2018-12-26T22:26:57.301Z,95620.30
2018-12-26T22:29:23.952Z,95618.77
2018-12-26T22:31:50.589Z,95615.74
2018-12-26T22:34:17.244Z,95613.36
2018-12-26T22:36:43.896Z,95609.42
2018-12-26T22:39:10.541Z,95612.48
2018-12-26T22:41:37.234Z,95613.98
2018-12-26T22:44:03.933Z,95613.36
2018-12-26T22:46:30.621Z,95609.57
2018-12-26T22:48:57.381Z,95607.04
2018-12-26T22:51:24.032Z,95603.63
2018-12-26T22:53:50.686Z,95606.03
2018-12-26T22:56:17.372Z,95608.56
2018-12-26T22:58:44.016Z,95610.71
2018-12-26T23:01:10.669Z,95610.08
2018-12-26T23:03:37.341Z,95611.70
2018-12-26T23:06:04.110Z,95605.66
2018-12-26T23:08:30.786Z,95602.87
2018-12-26T23:10:57.600Z,95604.14
2018-12-26T23:13:24.268Z,95596.17
2018-12-26T23:15:50.957Z,95602.47
2018-12-26T23:18:17.617Z,95597.83
2018-12-26T23:20:44.307Z,95600.45
2018-12-26T23:23:10.963Z,95591.11
2018-12-26T23:25:37.604Z,95595.30
2018-12-26T23:28:04.314Z,95595.91
2018-12-26T23:30:30.954Z,95596.28
2018-12-26T23:32:57.591Z,95595.78
2018-12-26T23:35:24.285Z,95591.25
2018-12-26T23:37:50.922Z,95600.08
2018-12-26T23:40:18.925Z,95605.13
2018-12-26T23:42:44.278Z,95604.88
2018-12-26T23:45:10.986Z,95603.99
2018-12-26T23:47:37.630Z,95599.70
2018-12-26T23:50:04.269Z,95605.89
2018-12-26T23:52:30.978Z,95602.09
2018-12-26T23:54:57.616Z,95606.64
2018-12-26T23:57:24.261Z,95607.55
2018-12-26T23:59:50.897Z,95612.73
